sensor_id;sensor_type;location;lat;lon;timestamp;P1;durP1;ratioP1;P2;durP2;ratioP2
43744;SDS011;29359;53.048;8.732;2023-04-15T00:00:29;6.03;;;5.53;;
43744;SDS011;29359;53.048;8.732;2023-04-15T00:02:31;9.43;;;6.05;;
43744;SDS011;29359;53.048;8.732;2023-04-15T00:04:33;7.70;;;6.15;;
43744;SDS011;29359;53.048;8.732;2023-04-15T00:06:35;11.75;;;6.75;;
43744;SDS011;29359;53.048;8.732;2023-04-15T00:08:38;8.38;;;6.28;;
43744;SDS011;29359;53.048;8.732;2023-04-15T00:10:39;7.10;;;6.38;;
43744;SDS011;29359;53.048;8.732;2023-04-15T00:12:44;9.90;;;6.78;;
43744;SDS011;29359;53.048;8.732;2023-04-15T00:14:45;8.20;;;6.30;;
43744;SDS011;29359;53.048;8.732;2023-04-15T00:17:08;7.30;;;6.22;;
43744;SDS011;29359;53.048;8.732;2023-04-15T00:19:09;8.63;;;6.28;;
43744;SDS011;29359;53.048;8.732;2023-04-15T00:21:11;9.70;;;6.63;;
43744;SDS011;29359;53.048;8.732;2023-04-15T00:23:12;9.70;;;6.63;;
43744;SDS011;29359;53.048;8.732;2023-04-15T00:25:14;10.23;;;7.00;;
43744;SDS011;29359;53.048;8.732;2023-04-15T00:27:15;7.28;;;6.50;;
43744;SDS011;29359;53.048;8.732;2023-04-15T00:29:17;7.30;;;6.60;;
43744;SDS011;29359;53.048;8.732;2023-04-15T00:31:18;6.65;;;6.03;;
43744;SDS011;29359;53.048;8.732;2023-04-15T00:33:21;7.43;;;6.70;;
43744;SDS011;29359;53.048;8.732;2023-04-15T00:35:22;6.93;;;6.32;;
43744;SDS011;29359;53.048;8.732;2023-04-15T00:37:24;8.02;;;6.80;;
43744;SDS011;29359;53.048;8.732;2023-04-15T00:39:26;7.20;;;6.55;;
43744;SDS011;29359;53.048;8.732;2023-04-15T00:41:28;8.77;;;6.85;;
43744;SDS011;29359;53.048;8.732;2023-04-15T00:43:29;7.45;;;6.75;;
43744;SDS011;29359;53.048;8.732;2023-04-15T00:45:31;7.80;;;6.60;;
43744;SDS011;29359;53.048;8.732;2023-04-15T00:47:33;10.85;;;7.03;;
43744;SDS011;29359;53.048;8.732;2023-04-15T00:49:35;7.45;;;6.70;;
43744;SDS011;29359;53.048;8.732;2023-04-15T00:51:37;8.10;;;6.97;;
43744;SDS011;29359;53.048;8.732;2023-04-15T00:53:39;7.38;;;6.68;;
43744;SDS011;29359;53.048;8.732;2023-04-15T00:55:40;7.82;;;7.05;;
43744;SDS011;29359;53.048;8.732;2023-04-15T00:57:42;7.72;;;6.80;;
43744;SDS011;29359;53.048;8.732;2023-04-15T00:59:44;6.93;;;6.32;;
43744;SDS011;29359;53.048;8.732;2023-04-15T01:01:46;7.65;;;6.93;;
43744;SDS011;29359;53.048;8.732;2023-04-15T01:03:48;10.13;;;7.32;;
43744;SDS011;29359;53.048;8.732;2023-04-15T01:05:51;8.48;;;7.57;;
43744;SDS011;29359;53.048;8.732;2023-04-15T01:07:58;8.60;;;7.03;;
43744;SDS011;29359;53.048;8.732;2023-04-15T01:10:00;9.45;;;7.68;;
43744;SDS011;29359;53.048;8.732;2023-04-15T01:12:03;7.82;;;7.03;;
43744;SDS011;29359;53.048;8.732;2023-04-15T01:14:05;7.30;;;6.57;;
43744;SDS011;29359;53.048;8.732;2023-04-15T01:16:09;8.55;;;7.13;;
43744;SDS011;29359;53.048;8.732;2023-04-15T01:18:12;7.10;;;6.32;;
43744;SDS011;29359;53.048;8.732;2023-04-15T01:20:14;8.02;;;7.03;;
43744;SDS011;29359;53.048;8.732;2023-04-15T01:22:16;10.65;;;7.82;;
43744;SDS011;29359;53.048;8.732;2023-04-15T01:24:18;8.00;;;7.20;;
43744;SDS011;29359;53.048;8.732;2023-04-15T01:26:19;8.88;;;7.50;;
43744;SDS011;29359;53.048;8.732;2023-04-15T01:28:22;10.75;;;8.63;;
43744;SDS011;29359;53.048;8.732;2023-04-15T01:30:23;11.27;;;8.20;;
43744;SDS011;29359;53.048;8.732;2023-04-15T01:32:25;11.23;;;8.80;;
43744;SDS011;29359;53.048;8.732;2023-04-15T01:34:27;8.98;;;7.90;;
43744;SDS011;29359;53.048;8.732;2023-04-15T01:36:28;9.63;;;8.02;;
43744;SDS011;29359;53.048;8.732;2023-04-15T01:38:30;9.77;;;8.40;;
43744;SDS011;29359;53.048;8.732;2023-04-15T01:40:32;10.73;;;8.23;;
43744;SDS011;29359;53.048;8.732;2023-04-15T01:42:35;10.57;;;8.15;;
43744;SDS011;29359;53.048;8.732;2023-04-15T01:44:37;9.73;;;8.05;;
43744;SDS011;29359;53.048;8.732;2023-04-15T01:46:39;9.07;;;8.05;;
43744;SDS011;29359;53.048;8.732;2023-04-15T01:48:41;11.48;;;7.85;;
43744;SDS011;29359;53.048;8.732;2023-04-15T01:50:43;10.18;;;8.55;;
43744;SDS011;29359;53.048;8.732;2023-04-15T01:52:45;10.32;;;8.80;;
43744;SDS011;29359;53.048;8.732;2023-04-15T01:54:47;9.23;;;7.97;;
43744;SDS011;29359;53.048;8.732;2023-04-15T01:56:49;8.85;;;7.97;;
43744;SDS011;29359;53.048;8.732;2023-04-15T01:58:51;9.23;;;8.27;;
43744;SDS011;29359;53.048;8.732;2023-04-15T02:00:53;11.48;;;8.30;;
43744;SDS011;29359;53.048;8.732;2023-04-15T02:02:54;10.07;;;8.05;;
43744;SDS011;29359;53.048;8.732;2023-04-15T02:04:56;9.23;;;8.32;;
43744;SDS011;29359;53.048;8.732;2023-04-15T02:06:58;10.95;;;8.80;;
43744;SDS011;29359;53.048;8.732;2023-04-15T02:08:59;9.65;;;8.45;;
43744;SDS011;29359;53.048;8.732;2023-04-15T02:11:01;10.23;;;8.35;;
43744;SDS011;29359;53.048;8.732;2023-04-15T02:13:03;10.88;;;8.75;;
43744;SDS011;29359;53.048;8.732;2023-04-15T02:15:05;10.35;;;8.82;;
43744;SDS011;29359;53.048;8.732;2023-04-15T02:17:07;10.13;;;8.25;;
43744;SDS011;29359;53.048;8.732;2023-04-15T02:19:08;9.88;;;8.80;;
43744;SDS011;29359;53.048;8.732;2023-04-15T02:21:10;10.88;;;9.13;;
43744;SDS011;29359;53.048;8.732;2023-04-15T02:23:11;11.52;;;9.10;;
43744;SDS011;29359;53.048;8.732;2023-04-15T02:25:13;9.73;;;8.35;;
43744;SDS011;29359;53.048;8.732;2023-04-15T02:27:17;9.05;;;8.25;;
43744;SDS011;29359;53.048;8.732;2023-04-15T02:29:18;9.93;;;8.85;;
43744;SDS011;29359;53.048;8.732;2023-04-15T02:31:20;10.25;;;8.60;;
43744;SDS011;29359;53.048;8.732;2023-04-15T02:33:21;11.82;;;8.95;;
43744;SDS011;29359;53.048;8.732;2023-04-15T02:35:23;10.55;;;8.80;;
43744;SDS011;29359;53.048;8.732;2023-04-15T02:37:26;11.32;;;8.82;;
43744;SDS011;29359;53.048;8.732;2023-04-15T02:39:28;12.15;;;9.38;;
43744;SDS011;29359;53.048;8.732;2023-04-15T02:41:30;10.93;;;9.13;;
43744;SDS011;29359;53.048;8.732;2023-04-15T02:43:31;16.17;;;10.13;;
43744;SDS011;29359;53.048;8.732;2023-04-15T02:45:33;12.45;;;9.05;;
43744;SDS011;29359;53.048;8.732;2023-04-15T02:47:35;9.98;;;8.98;;
43744;SDS011;29359;53.048;8.732;2023-04-15T02:49:37;13.48;;;8.27;;
43744;SDS011;29359;53.048;8.732;2023-04-15T02:51:38;9.35;;;8.35;;
43744;SDS011;29359;53.048;8.732;2023-04-15T02:53:41;10.38;;;9.10;;
43744;SDS011;29359;53.048;8.732;2023-04-15T02:55:43;9.93;;;8.35;;
43744;SDS011;29359;53.048;8.732;2023-04-15T02:57:44;10.13;;;8.45;;
43744;SDS011;29359;53.048;8.732;2023-04-15T02:59:46;10.07;;;9.07;;
43744;SDS011;29359;53.048;8.732;2023-04-15T03:01:47;11.25;;;8.35;;
43744;SDS011;29359;53.048;8.732;2023-04-15T03:03:49;10.43;;;8.45;;
43744;SDS011;29359;53.048;8.732;2023-04-15T03:05:51;10.18;;;8.82;;
43744;SDS011;29359;53.048;8.732;2023-04-15T03:07:52;12.60;;;9.23;;
43744;SDS011;29359;53.048;8.732;2023-04-15T03:09:54;12.15;;;8.95;;
43744;SDS011;29359;53.048;8.732;2023-04-15T03:11:55;9.98;;;8.70;;
43744;SDS011;29359;53.048;8.732;2023-04-15T03:13:57;10.77;;;8.73;;
43744;SDS011;29359;53.048;8.732;2023-04-15T03:15:58;10.55;;;8.90;;
43744;SDS011;29359;53.048;8.732;2023-04-15T03:18:00;10.90;;;8.63;;
43744;SDS011;29359;53.048;8.732;2023-04-15T03:20:02;9.90;;;8.65;;
43744;SDS011;29359;53.048;8.732;2023-04-15T03:22:05;9.13;;;8.07;;
43744;SDS011;29359;53.048;8.732;2023-04-15T03:24:07;10.23;;;8.80;;
43744;SDS011;29359;53.048;8.732;2023-04-15T03:26:08;10.52;;;9.52;;
43744;SDS011;29359;53.048;8.732;2023-04-15T03:28:10;11.05;;;9.00;;
43744;SDS011;29359;53.048;8.732;2023-04-15T03:30:11;10.65;;;9.55;;
43744;SDS011;29359;53.048;8.732;2023-04-15T03:32:13;11.00;;;9.93;;
43744;SDS011;29359;53.048;8.732;2023-04-15T03:34:15;11.65;;;9.45;;
43744;SDS011;29359;53.048;8.732;2023-04-15T03:36:17;10.38;;;9.27;;
43744;SDS011;29359;53.048;8.732;2023-04-15T03:38:18;10.60;;;9.45;;
43744;SDS011;29359;53.048;8.732;2023-04-15T03:40:20;10.63;;;9.63;;
43744;SDS011;29359;53.048;8.732;2023-04-15T03:42:22;10.80;;;9.18;;
43744;SDS011;29359;53.048;8.732;2023-04-15T03:44:25;10.52;;;8.93;;
43744;SDS011;29359;53.048;8.732;2023-04-15T03:46:26;9.25;;;8.38;;
43744;SDS011;29359;53.048;8.732;2023-04-15T03:48:28;11.23;;;9.10;;
43744;SDS011;29359;53.048;8.732;2023-04-15T03:50:29;10.43;;;9.32;;
43744;SDS011;29359;53.048;8.732;2023-04-15T03:52:31;11.68;;;8.10;;
43744;SDS011;29359;53.048;8.732;2023-04-15T03:54:32;10.27;;;8.90;;
43744;SDS011;29359;53.048;8.732;2023-04-15T03:56:34;9.95;;;8.38;;
43744;SDS011;29359;53.048;8.732;2023-04-15T03:58:36;12.73;;;8.60;;
43744;SDS011;29359;53.048;8.732;2023-04-15T04:00:37;11.07;;;8.57;;
43744;SDS011;29359;53.048;8.732;2023-04-15T04:02:39;9.30;;;8.10;;
43744;SDS011;29359;53.048;8.732;2023-04-15T04:04:41;10.55;;;8.55;;
43744;SDS011;29359;53.048;8.732;2023-04-15T04:06:44;10.98;;;8.93;;
43744;SDS011;29359;53.048;8.732;2023-04-15T04:08:45;12.52;;;9.75;;
43744;SDS011;29359;53.048;8.732;2023-04-15T04:10:47;11.95;;;8.98;;
43744;SDS011;29359;53.048;8.732;2023-04-15T04:12:48;11.13;;;9.18;;
43744;SDS011;29359;53.048;8.732;2023-04-15T04:14:50;11.85;;;8.65;;
43744;SDS011;29359;53.048;8.732;2023-04-15T04:16:51;11.00;;;9.20;;
43744;SDS011;29359;53.048;8.732;2023-04-15T04:18:53;12.40;;;9.55;;
43744;SDS011;29359;53.048;8.732;2023-04-15T04:20:54;12.40;;;9.73;;
43744;SDS011;29359;53.048;8.732;2023-04-15T04:22:56;14.57;;;9.85;;
43744;SDS011;29359;53.048;8.732;2023-04-15T04:24:57;13.80;;;9.38;;
43744;SDS011;29359;53.048;8.732;2023-04-15T04:27:00;11.57;;;9.13;;
43744;SDS011;29359;53.048;8.732;2023-04-15T04:29:02;13.07;;;9.55;;
43744;SDS011;29359;53.048;8.732;2023-04-15T04:31:04;13.93;;;9.75;;
43744;SDS011;29359;53.048;8.732;2023-04-15T04:33:06;13.35;;;9.98;;
43744;SDS011;29359;53.048;8.732;2023-04-15T04:35:07;12.18;;;10.10;;
43744;SDS011;29359;53.048;8.732;2023-04-15T04:37:09;13.48;;;10.55;;
43744;SDS011;29359;53.048;8.732;2023-04-15T04:39:11;14.93;;;10.57;;
43744;SDS011;29359;53.048;8.732;2023-04-15T04:41:12;13.73;;;10.45;;
43744;SDS011;29359;53.048;8.732;2023-04-15T04:43:14;14.15;;;10.63;;
43744;SDS011;29359;53.048;8.732;2023-04-15T04:45:16;15.43;;;10.32;;
43744;SDS011;29359;53.048;8.732;2023-04-15T04:47:18;16.63;;;11.07;;
43744;SDS011;29359;53.048;8.732;2023-04-15T04:49:19;15.52;;;11.00;;
43744;SDS011;29359;53.048;8.732;2023-04-15T04:51:21;14.30;;;10.65;;
43744;SDS011;29359;53.048;8.732;2023-04-15T04:53:22;13.63;;;10.57;;
43744;SDS011;29359;53.048;8.732;2023-04-15T04:55:24;13.80;;;10.85;;
43744;SDS011;29359;53.048;8.732;2023-04-15T04:57:25;13.98;;;10.77;;
43744;SDS011;29359;53.048;8.732;2023-04-15T04:59:27;14.07;;;10.88;;
43744;SDS011;29359;53.048;8.732;2023-04-15T05:01:28;14.30;;;10.90;;
43744;SDS011;29359;53.048;8.732;2023-04-15T05:03:30;14.98;;;11.38;;
43744;SDS011;29359;53.048;8.732;2023-04-15T05:05:32;15.63;;;11.23;;
43744;SDS011;29359;53.048;8.732;2023-04-15T05:07:33;16.02;;;11.30;;
43744;SDS011;29359;53.048;8.732;2023-04-15T05:09:35;13.45;;;11.05;;
43744;SDS011;29359;53.048;8.732;2023-04-15T05:11:37;15.77;;;11.60;;
43744;SDS011;29359;53.048;8.732;2023-04-15T05:13:38;14.73;;;11.52;;
43744;SDS011;29359;53.048;8.732;2023-04-15T05:15:40;20.70;;;11.80;;
43744;SDS011;29359;53.048;8.732;2023-04-15T05:17:43;15.07;;;11.43;;
43744;SDS011;29359;53.048;8.732;2023-04-15T05:19:45;16.77;;;11.95;;
43744;SDS011;29359;53.048;8.732;2023-04-15T05:21:46;14.65;;;11.77;;
43744;SDS011;29359;53.048;8.732;2023-04-15T05:23:48;15.27;;;11.55;;
43744;SDS011;29359;53.048;8.732;2023-04-15T05:25:49;13.90;;;11.40;;
43744;SDS011;29359;53.048;8.732;2023-04-15T05:27:51;14.00;;;11.65;;
43744;SDS011;29359;53.048;8.732;2023-04-15T05:29:53;15.75;;;11.90;;
43744;SDS011;29359;53.048;8.732;2023-04-15T05:31:54;18.33;;;11.50;;
43744;SDS011;29359;53.048;8.732;2023-04-15T05:33:56;14.57;;;11.98;;
43744;SDS011;29359;53.048;8.732;2023-04-15T05:35:58;15.85;;;12.25;;
43744;SDS011;29359;53.048;8.732;2023-04-15T05:37:59;15.23;;;11.88;;
43744;SDS011;29359;53.048;8.732;2023-04-15T05:40:01;13.65;;;11.52;;
43744;SDS011;29359;53.048;8.732;2023-04-15T05:42:02;16.50;;;12.23;;
43744;SDS011;29359;53.048;8.732;2023-04-15T05:44:06;16.30;;;12.32;;
43744;SDS011;29359;53.048;8.732;2023-04-15T05:46:07;15.45;;;11.40;;
43744;SDS011;29359;53.048;8.732;2023-04-15T05:48:09;14.50;;;11.77;;
43744;SDS011;29359;53.048;8.732;2023-04-15T05:50:10;14.10;;;11.57;;
43744;SDS011;29359;53.048;8.732;2023-04-15T05:52:12;16.63;;;12.38;;
43744;SDS011;29359;53.048;8.732;2023-04-15T05:54:14;14.73;;;12.43;;
43744;SDS011;29359;53.048;8.732;2023-04-15T05:56:18;15.57;;;12.15;;
43744;SDS011;29359;53.048;8.732;2023-04-15T05:58:20;13.43;;;11.82;;
43744;SDS011;29359;53.048;8.732;2023-04-15T06:00:22;17.52;;;12.80;;
43744;SDS011;29359;53.048;8.732;2023-04-15T06:02:23;15.88;;;11.77;;
43744;SDS011;29359;53.048;8.732;2023-04-15T06:04:25;15.43;;;12.25;;
43744;SDS011;29359;53.048;8.732;2023-04-15T06:06:27;14.85;;;12.43;;
43744;SDS011;29359;53.048;8.732;2023-04-15T06:08:28;15.38;;;11.77;;
43744;SDS011;29359;53.048;8.732;2023-04-15T06:10:30;15.02;;;12.15;;
43744;SDS011;29359;53.048;8.732;2023-04-15T06:12:36;16.25;;;11.65;;
43744;SDS011;29359;53.048;8.732;2023-04-15T06:14:38;15.02;;;12.10;;
43744;SDS011;29359;53.048;8.732;2023-04-15T06:16:40;14.10;;;12.20;;
43744;SDS011;29359;53.048;8.732;2023-04-15T06:18:42;14.57;;;12.20;;
43744;SDS011;29359;53.048;8.732;2023-04-15T06:20:44;12.77;;;11.45;;
43744;SDS011;29359;53.048;8.732;2023-04-15T06:22:46;13.90;;;11.48;;
43744;SDS011;29359;53.048;8.732;2023-04-15T06:24:48;13.88;;;11.55;;
43744;SDS011;29359;53.048;8.732;2023-04-15T06:26:53;16.33;;;12.57;;
43744;SDS011;29359;53.048;8.732;2023-04-15T06:28:54;14.48;;;11.82;;
43744;SDS011;29359;53.048;8.732;2023-04-15T06:30:56;14.20;;;12.45;;
43744;SDS011;29359;53.048;8.732;2023-04-15T06:32:58;14.60;;;12.93;;
43744;SDS011;29359;53.048;8.732;2023-04-15T06:35:00;15.27;;;12.38;;
43744;SDS011;29359;53.048;8.732;2023-04-15T06:37:01;16.10;;;13.02;;
43744;SDS011;29359;53.048;8.732;2023-04-15T06:39:06;16.67;;;13.32;;
43744;SDS011;29359;53.048;8.732;2023-04-15T06:41:07;15.40;;;13.35;;
43744;SDS011;29359;53.048;8.732;2023-04-15T06:43:09;15.38;;;11.88;;
43744;SDS011;29359;53.048;8.732;2023-04-15T06:45:11;15.70;;;11.88;;
43744;SDS011;29359;53.048;8.732;2023-04-15T06:47:12;14.93;;;12.07;;
43744;SDS011;29359;53.048;8.732;2023-04-15T06:49:14;21.25;;;13.25;;
43744;SDS011;29359;53.048;8.732;2023-04-15T06:51:16;17.08;;;13.93;;
43744;SDS011;29359;53.048;8.732;2023-04-15T06:53:18;17.50;;;13.05;;
43744;SDS011;29359;53.048;8.732;2023-04-15T06:55:19;17.15;;;13.55;;
43744;SDS011;29359;53.048;8.732;2023-04-15T06:57:21;16.83;;;12.98;;
43744;SDS011;29359;53.048;8.732;2023-04-15T06:59:23;17.35;;;13.45;;
43744;SDS011;29359;53.048;8.732;2023-04-15T07:01:25;16.42;;;13.80;;
43744;SDS011;29359;53.048;8.732;2023-04-15T07:03:26;17.80;;;13.52;;
43744;SDS011;29359;53.048;8.732;2023-04-15T07:05:29;18.50;;;14.27;;
43744;SDS011;29359;53.048;8.732;2023-04-15T07:07:31;18.23;;;14.55;;
43744;SDS011;29359;53.048;8.732;2023-04-15T07:09:32;20.40;;;13.38;;
43744;SDS011;29359;53.048;8.732;2023-04-15T07:11:34;17.80;;;13.93;;
43744;SDS011;29359;53.048;8.732;2023-04-15T07:13:36;15.75;;;12.98;;
43744;SDS011;29359;53.048;8.732;2023-04-15T07:15:38;14.77;;;13.00;;
43744;SDS011;29359;53.048;8.732;2023-04-15T07:17:40;17.05;;;13.38;;
43744;SDS011;29359;53.048;8.732;2023-04-15T07:19:43;16.50;;;13.43;;
43744;SDS011;29359;53.048;8.732;2023-04-15T07:21:45;18.10;;;13.35;;
43744;SDS011;29359;53.048;8.732;2023-04-15T07:23:47;15.35;;;13.50;;
43744;SDS011;29359;53.048;8.732;2023-04-15T07:25:48;15.32;;;12.02;;
43744;SDS011;29359;53.048;8.732;2023-04-15T07:27:51;14.18;;;11.88;;
43744;SDS011;29359;53.048;8.732;2023-04-15T07:29:53;14.52;;;12.30;;
43744;SDS011;29359;53.048;8.732;2023-04-15T07:31:54;13.65;;;12.00;;
43744;SDS011;29359;53.048;8.732;2023-04-15T07:33:57;16.38;;;11.57;;
43744;SDS011;29359;53.048;8.732;2023-04-15T07:35:59;11.63;;;10.50;;
43744;SDS011;29359;53.048;8.732;2023-04-15T07:38:01;11.10;;;10.10;;
43744;SDS011;29359;53.048;8.732;2023-04-15T07:40:03;11.80;;;10.68;;
43744;SDS011;29359;53.048;8.732;2023-04-15T07:42:07;11.27;;;9.70;;
43744;SDS011;29359;53.048;8.732;2023-04-15T07:44:08;13.38;;;10.10;;
43744;SDS011;29359;53.048;8.732;2023-04-15T07:46:10;11.68;;;9.80;;
43744;SDS011;29359;53.048;8.732;2023-04-15T07:48:12;10.35;;;9.35;;
43744;SDS011;29359;53.048;8.732;2023-04-15T07:50:13;11.98;;;10.35;;
43744;SDS011;29359;53.048;8.732;2023-04-15T07:52:16;13.85;;;9.80;;
43744;SDS011;29359;53.048;8.732;2023-04-15T07:54:18;10.63;;;8.68;;
43744;SDS011;29359;53.048;8.732;2023-04-15T07:56:19;9.50;;;8.50;;
43744;SDS011;29359;53.048;8.732;2023-04-15T07:58:22;10.32;;;9.02;;
43744;SDS011;29359;53.048;8.732;2023-04-15T08:00:23;10.63;;;9.63;;
43744;SDS011;29359;53.048;8.732;2023-04-15T08:02:25;11.80;;;10.20;;
43744;SDS011;29359;53.048;8.732;2023-04-15T08:04:27;12.05;;;10.85;;
43744;SDS011;29359;53.048;8.732;2023-04-15T08:06:29;12.25;;;11.05;;
43744;SDS011;29359;53.048;8.732;2023-04-15T08:08:31;10.73;;;9.52;;
43744;SDS011;29359;53.048;8.732;2023-04-15T08:10:32;10.02;;;9.02;;
43744;SDS011;29359;53.048;8.732;2023-04-15T08:12:34;9.90;;;9.05;;
43744;SDS011;29359;53.048;8.732;2023-04-15T08:14:35;10.52;;;9.18;;
43744;SDS011;29359;53.048;8.732;2023-04-15T08:16:37;13.82;;;9.95;;
43744;SDS011;29359;53.048;8.732;2023-04-15T08:18:39;11.23;;;8.73;;
43744;SDS011;29359;53.048;8.732;2023-04-15T08:20:40;11.80;;;8.25;;
43744;SDS011;29359;53.048;8.732;2023-04-15T08:22:42;9.45;;;8.10;;
43744;SDS011;29359;53.048;8.732;2023-04-15T08:24:44;6.88;;;6.32;;
43744;SDS011;29359;53.048;8.732;2023-04-15T08:26:45;7.22;;;6.45;;
43744;SDS011;29359;53.048;8.732;2023-04-15T08:28:47;7.15;;;6.45;;
43744;SDS011;29359;53.048;8.732;2023-04-15T08:30:49;7.13;;;6.43;;
43744;SDS011;29359;53.048;8.732;2023-04-15T08:32:52;6.65;;;6.15;;
43744;SDS011;29359;53.048;8.732;2023-04-15T08:34:54;5.90;;;5.50;;
43744;SDS011;29359;53.048;8.732;2023-04-15T08:36:55;6.68;;;6.18;;
43744;SDS011;29359;53.048;8.732;2023-04-15T08:38:57;7.35;;;6.65;;
43744;SDS011;29359;53.048;8.732;2023-04-15T08:41:03;8.40;;;5.85;;
43744;SDS011;29359;53.048;8.732;2023-04-15T08:43:14;6.55;;;5.95;;
43744;SDS011;29359;53.048;8.732;2023-04-15T08:45:21;6.43;;;5.82;;
43744;SDS011;29359;53.048;8.732;2023-04-15T08:47:23;8.15;;;6.70;;
43744;SDS011;29359;53.048;8.732;2023-04-15T08:49:30;8.40;;;7.15;;
43744;SDS011;29359;53.048;8.732;2023-04-15T08:51:33;7.93;;;6.82;;
43744;SDS011;29359;53.048;8.732;2023-04-15T08:53:34;7.07;;;6.38;;
43744;SDS011;29359;53.048;8.732;2023-04-15T08:55:39;6.70;;;6.22;;
43744;SDS011;29359;53.048;8.732;2023-04-15T08:57:44;6.50;;;5.90;;
43744;SDS011;29359;53.048;8.732;2023-04-15T08:59:46;6.28;;;5.78;;
43744;SDS011;29359;53.048;8.732;2023-04-15T09:01:48;6.43;;;5.90;;
43744;SDS011;29359;53.048;8.732;2023-04-15T09:03:51;6.63;;;6.10;;
43744;SDS011;29359;53.048;8.732;2023-04-15T09:05:55;7.85;;;6.05;;
43744;SDS011;29359;53.048;8.732;2023-04-15T09:07:57;6.43;;;5.68;;
43744;SDS011;29359;53.048;8.732;2023-04-15T09:09:59;5.47;;;4.97;;
43744;SDS011;29359;53.048;8.732;2023-04-15T09:12:00;5.47;;;4.97;;
43744;SDS011;29359;53.048;8.732;2023-04-15T09:14:02;5.70;;;4.65;;
43744;SDS011;29359;53.048;8.732;2023-04-15T09:16:04;5.03;;;4.53;;
43744;SDS011;29359;53.048;8.732;2023-04-15T09:18:06;4.55;;;4.18;;
43744;SDS011;29359;53.048;8.732;2023-04-15T09:22:13;4.07;;;3.78;;
43744;SDS011;29359;53.048;8.732;2023-04-15T09:24:15;3.80;;;3.50;;
43744;SDS011;29359;53.048;8.732;2023-04-15T09:26:17;4.65;;;4.25;;
43744;SDS011;29359;53.048;8.732;2023-04-15T09:28:22;4.10;;;3.70;;
43744;SDS011;29359;53.048;8.732;2023-04-15T09:30:28;3.97;;;3.67;;
43744;SDS011;29359;53.048;8.732;2023-04-15T09:32:30;3.50;;;3.22;;
43744;SDS011;29359;53.048;8.732;2023-04-15T09:34:34;4.20;;;3.90;;
43744;SDS011;29359;53.048;8.732;2023-04-15T09:38:54;4.20;;;3.90;;
43744;SDS011;29359;53.048;8.732;2023-04-15T09:40:57;4.35;;;4.05;;
43744;SDS011;29359;53.048;8.732;2023-04-15T09:42:59;4.30;;;3.92;;
43744;SDS011;29359;53.048;8.732;2023-04-15T09:45:09;3.88;;;3.58;;
43744;SDS011;29359;53.048;8.732;2023-04-15T09:47:30;3.97;;;3.67;;
43744;SDS011;29359;53.048;8.732;2023-04-15T09:49:32;4.00;;;3.65;;
43744;SDS011;29359;53.048;8.732;2023-04-15T09:51:34;4.85;;;3.72;;
43744;SDS011;29359;53.048;8.732;2023-04-15T09:53:36;7.28;;;4.38;;
43744;SDS011;29359;53.048;8.732;2023-04-15T09:55:44;4.35;;;4.05;;
43744;SDS011;29359;53.048;8.732;2023-04-15T09:57:47;4.10;;;3.80;;
43744;SDS011;29359;53.048;8.732;2023-04-15T09:59:49;4.72;;;4.32;;
43744;SDS011;29359;53.048;8.732;2023-04-15T10:01:51;4.60;;;4.30;;
43744;SDS011;29359;53.048;8.732;2023-04-15T10:03:53;4.25;;;3.95;;
43744;SDS011;29359;53.048;8.732;2023-04-15T10:05:59;4.40;;;4.10;;
43744;SDS011;29359;53.048;8.732;2023-04-15T10:08:02;3.97;;;3.67;;
43744;SDS011;29359;53.048;8.732;2023-04-15T10:10:04;3.95;;;3.65;;
43744;SDS011;29359;53.048;8.732;2023-04-15T10:12:07;4.20;;;3.80;;
43744;SDS011;29359;53.048;8.732;2023-04-15T10:14:09;4.15;;;3.85;;
43744;SDS011;29359;53.048;8.732;2023-04-15T10:16:13;4.90;;;4.50;;
43744;SDS011;29359;53.048;8.732;2023-04-15T10:18:17;4.00;;;3.78;;
43744;SDS011;29359;53.048;8.732;2023-04-15T10:20:21;5.03;;;4.15;;
43744;SDS011;29359;53.048;8.732;2023-04-15T10:22:23;4.78;;;4.38;;
43744;SDS011;29359;53.048;8.732;2023-04-15T10:24:27;4.55;;;4.25;;
43744;SDS011;29359;53.048;8.732;2023-04-15T10:26:30;4.78;;;4.43;;
43744;SDS011;29359;53.048;8.732;2023-04-15T10:28:31;4.35;;;3.95;;
43744;SDS011;29359;53.048;8.732;2023-04-15T10:30:33;6.95;;;4.25;;
43744;SDS011;29359;53.048;8.732;2023-04-15T10:32:35;4.90;;;4.50;;
43744;SDS011;29359;53.048;8.732;2023-04-15T10:34:37;5.03;;;4.63;;
43744;SDS011;29359;53.048;8.732;2023-04-15T10:36:40;4.28;;;3.97;;
43744;SDS011;29359;53.048;8.732;2023-04-15T10:38:42;5.22;;;4.82;;
43744;SDS011;29359;53.048;8.732;2023-04-15T10:40:46;4.57;;;4.28;;
43744;SDS011;29359;53.048;8.732;2023-04-15T10:42:47;5.57;;;5.18;;
43744;SDS011;29359;53.048;8.732;2023-04-15T10:44:50;5.85;;;5.35;;
43744;SDS011;29359;53.048;8.732;2023-04-15T10:46:56;4.97;;;4.47;;
43744;SDS011;29359;53.048;8.732;2023-04-15T10:48:59;5.85;;;5.35;;
43744;SDS011;29359;53.048;8.732;2023-04-15T10:51:12;5.20;;;4.80;;
43744;SDS011;29359;53.048;8.732;2023-04-15T10:53:20;5.43;;;5.00;;
43744;SDS011;29359;53.048;8.732;2023-04-15T10:55:32;5.30;;;4.90;;
43744;SDS011;29359;53.048;8.732;2023-04-15T10:57:34;7.15;;;5.05;;
43744;SDS011;29359;53.048;8.732;2023-04-15T11:02:00;6.20;;;5.63;;
43744;SDS011;29359;53.048;8.732;2023-04-15T11:04:06;8.93;;;5.63;;
43744;SDS011;29359;53.048;8.732;2023-04-15T11:06:08;8.77;;;5.22;;
43744;SDS011;29359;53.048;8.732;2023-04-15T11:08:10;10.45;;;6.38;;
43744;SDS011;29359;53.048;8.732;2023-04-15T11:12:17;5.65;;;5.15;;
43744;SDS011;29359;53.048;8.732;2023-04-15T11:14:19;6.28;;;5.65;;
43744;SDS011;29359;53.048;8.732;2023-04-15T11:16:22;10.35;;;6.25;;
43744;SDS011;29359;53.048;8.732;2023-04-15T11:18:25;6.35;;;5.75;;
43744;SDS011;29359;53.048;8.732;2023-04-15T11:20:28;7.78;;;7.07;;
43744;SDS011;29359;53.048;8.732;2023-04-15T11:22:30;7.38;;;6.60;;
43744;SDS011;29359;53.048;8.732;2023-04-15T11:24:31;8.88;;;6.47;;
43744;SDS011;29359;53.048;8.732;2023-04-15T11:26:33;6.53;;;6.00;;
43744;SDS011;29359;53.048;8.732;2023-04-15T11:28:35;7.28;;;6.55;;
43744;SDS011;29359;53.048;8.732;2023-04-15T11:30:39;7.40;;;6.53;;
43744;SDS011;29359;53.048;8.732;2023-04-15T11:32:42;10.75;;;6.90;;
43744;SDS011;29359;53.048;8.732;2023-04-15T11:34:44;7.55;;;6.85;;
43744;SDS011;29359;53.048;8.732;2023-04-15T11:36:46;8.88;;;7.22;;
43744;SDS011;29359;53.048;8.732;2023-04-15T11:38:48;7.03;;;6.40;;
43744;SDS011;29359;53.048;8.732;2023-04-15T11:40:50;12.85;;;9.10;;
43744;SDS011;29359;53.048;8.732;2023-04-15T11:45:16;7.68;;;6.90;;
43744;SDS011;29359;53.048;8.732;2023-04-15T11:47:22;9.02;;;7.63;;
43744;SDS011;29359;53.048;8.732;2023-04-15T11:49:27;9.57;;;7.25;;
43744;SDS011;29359;53.048;8.732;2023-04-15T11:51:33;9.18;;;7.32;;
43744;SDS011;29359;53.048;8.732;2023-04-15T11:53:39;11.10;;;8.27;;
43744;SDS011;29359;53.048;8.732;2023-04-15T11:55:43;11.30;;;8.75;;
43744;SDS011;29359;53.048;8.732;2023-04-15T12:00:11;13.77;;;9.85;;
43744;SDS011;29359;53.048;8.732;2023-04-15T12:02:13;12.82;;;9.82;;
43744;SDS011;29359;53.048;8.732;2023-04-15T12:04:16;16.63;;;10.65;;
43744;SDS011;29359;53.048;8.732;2023-04-15T12:06:30;14.57;;;10.70;;
43744;SDS011;29359;53.048;8.732;2023-04-15T12:08:57;15.32;;;10.93;;
43744;SDS011;29359;53.048;8.732;2023-04-15T12:11:13;17.90;;;11.10;;
43744;SDS011;29359;53.048;8.732;2023-04-15T12:13:15;19.25;;;12.63;;
43744;SDS011;29359;53.048;8.732;2023-04-15T12:15:20;18.02;;;12.57;;
43744;SDS011;29359;53.048;8.732;2023-04-15T12:17:23;23.25;;;13.45;;
43744;SDS011;29359;53.048;8.732;2023-04-15T12:19:34;21.58;;;13.80;;
43744;SDS011;29359;53.048;8.732;2023-04-15T12:21:40;19.85;;;12.77;;